sensor_id;sensor_type;location;lat;lon;timestamp;P1;durP1;ratioP1;P2;durP2;ratioP2
34767;SDS011;21755;43.608;1.236;2022-10-16T00:01:11;11.10;;;6.72;;
34767;SDS011;21755;43.608;1.236;2022-10-16T00:03:38;11.73;;;7.05;;
34767;SDS011;21755;43.608;1.236;2022-10-16T00:06:06;13.80;;;7.07;;
34767;SDS011;21755;43.608;1.236;2022-10-16T00:08:33;9.32;;;6.40;;
34767;SDS011;21755;43.608;1.236;2022-10-16T00:11:01;13.18;;;7.55;;
34767;SDS011;21755;43.608;1.236;2022-10-16T00:13:29;11.85;;;7.20;;
34767;SDS011;21755;43.608;1.236;2022-10-16T00:15:56;8.32;;;6.35;;
34767;SDS011;21755;43.608;1.236;2022-10-16T00:18:23;16.45;;;7.50;;
34767;SDS011;21755;43.608;1.236;2022-10-16T00:20:50;16.83;;;8.15;;
34767;SDS011;21755;43.608;1.236;2022-10-16T00:23:16;14.93;;;7.97;;
34767;SDS011;21755;43.608;1.236;2022-10-16T00:25:43;14.77;;;7.90;;
34767;SDS011;21755;43.608;1.236;2022-10-16T00:28:09;10.25;;;7.57;;
34767;SDS011;21755;43.608;1.236;2022-10-16T00:30:38;11.00;;;7.93;;
34767;SDS011;21755;43.608;1.236;2022-10-16T00:33:04;10.23;;;7.60;;
34767;SDS011;21755;43.608;1.236;2022-10-16T00:35:30;10.10;;;6.93;;
34767;SDS011;21755;43.608;1.236;2022-10-16T00:37:56;11.07;;;7.60;;
34767;SDS011;21755;43.608;1.236;2022-10-16T00:40:22;16.95;;;8.05;;
34767;SDS011;21755;43.608;1.236;2022-10-16T00:42:48;14.25;;;7.47;;
34767;SDS011;21755;43.608;1.236;2022-10-16T00:45:15;12.00;;;7.00;;
34767;SDS011;21755;43.608;1.236;2022-10-16T00:47:42;16.15;;;7.70;;
34767;SDS011;21755;43.608;1.236;2022-10-16T00:50:12;13.55;;;7.57;;
34767;SDS011;21755;43.608;1.236;2022-10-16T00:52:43;15.23;;;7.88;;
34767;SDS011;21755;43.608;1.236;2022-10-16T00:55:11;16.45;;;9.10;;
34767;SDS011;21755;43.608;1.236;2022-10-16T00:57:38;13.68;;;7.68;;
34767;SDS011;21755;43.608;1.236;2022-10-16T01:00:06;16.90;;;6.93;;
34767;SDS011;21755;43.608;1.236;2022-10-16T01:02:34;10.75;;;7.70;;
34767;SDS011;21755;43.608;1.236;2022-10-16T01:05:00;19.58;;;8.20;;
34767;SDS011;21755;43.608;1.236;2022-10-16T01:13:21;12.13;;;8.00;;
34767;SDS011;21755;43.608;1.236;2022-10-16T01:15:59;13.50;;;8.48;;
34767;SDS011;21755;43.608;1.236;2022-10-16T01:18:39;12.40;;;8.68;;
34767;SDS011;21755;43.608;1.236;2022-10-16T01:21:19;13.07;;;8.60;;
34767;SDS011;21755;43.608;1.236;2022-10-16T01:24:12;18.63;;;8.23;;
34767;SDS011;21755;43.608;1.236;2022-10-16T01:32:27;13.83;;;8.23;;
34767;SDS011;21755;43.608;1.236;2022-10-16T01:35:37;15.00;;;7.80;;
34767;SDS011;21755;43.608;1.236;2022-10-16T01:37:49;12.52;;;7.95;;
34767;SDS011;21755;43.608;1.236;2022-10-16T01:40:23;18.08;;;8.02;;
34767;SDS011;21755;43.608;1.236;2022-10-16T01:42:52;12.48;;;7.40;;
34767;SDS011;21755;43.608;1.236;2022-10-16T01:45:31;20.08;;;8.38;;
34767;SDS011;21755;43.608;1.236;2022-10-16T01:47:58;19.98;;;8.48;;
34767;SDS011;21755;43.608;1.236;2022-10-16T01:50:29;10.93;;;8.00;;
34767;SDS011;21755;43.608;1.236;2022-10-16T01:52:59;11.82;;;8.65;;
34767;SDS011;21755;43.608;1.236;2022-10-16T01:55:29;15.52;;;8.23;;
34767;SDS011;21755;43.608;1.236;2022-10-16T01:57:59;15.70;;;8.35;;
34767;SDS011;21755;43.608;1.236;2022-10-16T02:00:27;14.90;;;8.27;;
34767;SDS011;21755;43.608;1.236;2022-10-16T02:02:55;14.85;;;8.40;;
34767;SDS011;21755;43.608;1.236;2022-10-16T02:08:10;12.57;;;7.85;;
34767;SDS011;21755;43.608;1.236;2022-10-16T02:10:36;11.60;;;7.68;;
34767;SDS011;21755;43.608;1.236;2022-10-16T02:13:05;13.75;;;8.05;;
34767;SDS011;21755;43.608;1.236;2022-10-16T02:15:35;14.98;;;8.20;;
34767;SDS011;21755;43.608;1.236;2022-10-16T02:18:04;12.02;;;7.57;;
34767;SDS011;21755;43.608;1.236;2022-10-16T02:20:33;15.70;;;9.13;;
34767;SDS011;21755;43.608;1.236;2022-10-16T02:23:04;12.32;;;8.32;;
34767;SDS011;21755;43.608;1.236;2022-10-16T02:25:34;15.98;;;8.60;;
34767;SDS011;21755;43.608;1.236;2022-10-16T02:28:09;11.77;;;7.85;;
34767;SDS011;21755;43.608;1.236;2022-10-16T02:30:47;13.65;;;8.13;;
34767;SDS011;21755;43.608;1.236;2022-10-16T02:33:19;13.52;;;7.45;;
34767;SDS011;21755;43.608;1.236;2022-10-16T02:35:47;12.15;;;8.18;;
34767;SDS011;21755;43.608;1.236;2022-10-16T02:38:16;14.90;;;8.70;;
34767;SDS011;21755;43.608;1.236;2022-10-16T02:40:44;17.67;;;8.95;;
34767;SDS011;21755;43.608;1.236;2022-10-16T02:43:11;11.43;;;8.05;;
34767;SDS011;21755;43.608;1.236;2022-10-16T02:45:37;19.77;;;8.73;;
34767;SDS011;21755;43.608;1.236;2022-10-16T02:48:03;14.07;;;9.45;;
34767;SDS011;21755;43.608;1.236;2022-10-16T02:50:30;23.67;;;9.23;;
34767;SDS011;21755;43.608;1.236;2022-10-16T02:52:56;17.75;;;9.23;;
34767;SDS011;21755;43.608;1.236;2022-10-16T02:55:22;14.20;;;8.52;;
34767;SDS011;21755;43.608;1.236;2022-10-16T02:57:48;16.00;;;8.88;;
34767;SDS011;21755;43.608;1.236;2022-10-16T03:00:15;15.18;;;8.88;;
34767;SDS011;21755;43.608;1.236;2022-10-16T03:02:42;21.15;;;9.73;;
34767;SDS011;21755;43.608;1.236;2022-10-16T03:05:08;15.50;;;9.18;;
34767;SDS011;21755;43.608;1.236;2022-10-16T03:07:35;13.02;;;9.05;;
34767;SDS011;21755;43.608;1.236;2022-10-16T03:10:01;16.17;;;8.90;;
34767;SDS011;21755;43.608;1.236;2022-10-16T03:12:27;14.63;;;8.52;;
34767;SDS011;21755;43.608;1.236;2022-10-16T03:14:55;16.02;;;9.88;;
34767;SDS011;21755;43.608;1.236;2022-10-16T03:17:22;15.85;;;9.73;;
34767;SDS011;21755;43.608;1.236;2022-10-16T03:19:48;16.52;;;9.90;;
34767;SDS011;21755;43.608;1.236;2022-10-16T03:22:15;15.30;;;9.15;;
34767;SDS011;21755;43.608;1.236;2022-10-16T03:24:41;14.70;;;9.18;;
34767;SDS011;21755;43.608;1.236;2022-10-16T03:27:07;17.23;;;9.52;;
34767;SDS011;21755;43.608;1.236;2022-10-16T03:29:33;16.15;;;9.30;;
34767;SDS011;21755;43.608;1.236;2022-10-16T03:31:59;18.27;;;9.43;;
34767;SDS011;21755;43.608;1.236;2022-10-16T03:34:25;18.25;;;9.75;;
34767;SDS011;21755;43.608;1.236;2022-10-16T03:36:51;16.95;;;9.68;;
34767;SDS011;21755;43.608;1.236;2022-10-16T03:39:18;14.23;;;9.52;;
34767;SDS011;21755;43.608;1.236;2022-10-16T03:41:44;16.23;;;10.10;;
34767;SDS011;21755;43.608;1.236;2022-10-16T03:44:11;17.92;;;9.00;;
34767;SDS011;21755;43.608;1.236;2022-10-16T03:46:38;18.58;;;9.73;;
34767;SDS011;21755;43.608;1.236;2022-10-16T03:49:04;16.00;;;9.05;;
34767;SDS011;21755;43.608;1.236;2022-10-16T03:51:30;18.85;;;9.85;;
34767;SDS011;21755;43.608;1.236;2022-10-16T03:53:56;14.77;;;9.70;;
34767;SDS011;21755;43.608;1.236;2022-10-16T03:56:22;21.58;;;10.15;;
34767;SDS011;21755;43.608;1.236;2022-10-16T03:58:48;15.80;;;10.27;;
34767;SDS011;21755;43.608;1.236;2022-10-16T04:01:15;19.55;;;9.98;;
34767;SDS011;21755;43.608;1.236;2022-10-16T04:03:41;17.13;;;9.85;;
34767;SDS011;21755;43.608;1.236;2022-10-16T04:06:07;21.92;;;10.35;;
34767;SDS011;21755;43.608;1.236;2022-10-16T04:08:34;20.27;;;12.18;;
34767;SDS011;21755;43.608;1.236;2022-10-16T04:11:01;14.82;;;9.27;;
34767;SDS011;21755;43.608;1.236;2022-10-16T04:13:28;18.55;;;10.13;;
34767;SDS011;21755;43.608;1.236;2022-10-16T04:15:54;15.55;;;9.43;;
34767;SDS011;21755;43.608;1.236;2022-10-16T04:18:20;18.75;;;9.80;;
34767;SDS011;21755;43.608;1.236;2022-10-16T04:20:46;20.85;;;10.10;;
34767;SDS011;21755;43.608;1.236;2022-10-16T04:23:12;17.30;;;9.88;;
34767;SDS011;21755;43.608;1.236;2022-10-16T04:25:38;18.60;;;10.02;;
34767;SDS011;21755;43.608;1.236;2022-10-16T04:28:04;16.10;;;10.00;;
34767;SDS011;21755;43.608;1.236;2022-10-16T04:30:30;17.95;;;10.23;;
34767;SDS011;21755;43.608;1.236;2022-10-16T04:32:58;21.08;;;10.60;;
34767;SDS011;21755;43.608;1.236;2022-10-16T04:35:24;22.90;;;11.30;;
34767;SDS011;21755;43.608;1.236;2022-10-16T04:37:50;21.27;;;11.60;;
34767;SDS011;21755;43.608;1.236;2022-10-16T04:40:16;20.73;;;11.35;;
34767;SDS011;21755;43.608;1.236;2022-10-16T04:42:43;17.13;;;9.88;;
34767;SDS011;21755;43.608;1.236;2022-10-16T04:45:09;21.08;;;11.35;;
34767;SDS011;21755;43.608;1.236;2022-10-16T04:47:35;21.92;;;11.10;;
34767;SDS011;21755;43.608;1.236;2022-10-16T04:50:01;18.55;;;11.00;;
34767;SDS011;21755;43.608;1.236;2022-10-16T04:52:27;18.40;;;10.68;;
34767;SDS011;21755;43.608;1.236;2022-10-16T04:54:53;16.85;;;10.25;;
34767;SDS011;21755;43.608;1.236;2022-10-16T04:57:21;22.73;;;11.38;;
34767;SDS011;21755;43.608;1.236;2022-10-16T04:59:48;19.48;;;10.93;;
34767;SDS011;21755;43.608;1.236;2022-10-16T05:02:14;16.63;;;10.80;;
34767;SDS011;21755;43.608;1.236;2022-10-16T05:04:40;20.00;;;10.93;;
34767;SDS011;21755;43.608;1.236;2022-10-16T05:07:06;22.80;;;11.13;;
34767;SDS011;21755;43.608;1.236;2022-10-16T05:09:32;21.83;;;11.13;;
34767;SDS011;21755;43.608;1.236;2022-10-16T05:11:58;20.70;;;11.35;;
34767;SDS011;21755;43.608;1.236;2022-10-16T05:14:24;18.10;;;11.15;;
34767;SDS011;21755;43.608;1.236;2022-10-16T05:16:50;19.88;;;10.43;;
34767;SDS011;21755;43.608;1.236;2022-10-16T05:19:16;20.08;;;10.23;;
34767;SDS011;21755;43.608;1.236;2022-10-16T05:21:42;19.95;;;10.80;;
34767;SDS011;21755;43.608;1.236;2022-10-16T05:24:08;24.80;;;12.45;;
34767;SDS011;21755;43.608;1.236;2022-10-16T05:26:34;22.77;;;10.65;;
34767;SDS011;21755;43.608;1.236;2022-10-16T05:29:00;27.55;;;11.57;;
34767;SDS011;21755;43.608;1.236;2022-10-16T05:31:28;20.05;;;10.90;;
34767;SDS011;21755;43.608;1.236;2022-10-16T05:33:57;21.15;;;11.57;;
34767;SDS011;21755;43.608;1.236;2022-10-16T05:36:25;18.38;;;11.65;;
34767;SDS011;21755;43.608;1.236;2022-10-16T05:38:51;18.48;;;9.77;;
34767;SDS011;21755;43.608;1.236;2022-10-16T05:41:18;14.32;;;10.48;;
34767;SDS011;21755;43.608;1.236;2022-10-16T05:43:50;23.10;;;10.65;;
34767;SDS011;21755;43.608;1.236;2022-10-16T05:46:16;17.05;;;10.30;;
34767;SDS011;21755;43.608;1.236;2022-10-16T05:48:42;20.77;;;11.23;;
34767;SDS011;21755;43.608;1.236;2022-10-16T05:51:11;21.85;;;11.35;;
34767;SDS011;21755;43.608;1.236;2022-10-16T05:53:38;23.55;;;11.40;;
34767;SDS011;21755;43.608;1.236;2022-10-16T05:56:05;21.02;;;11.05;;
34767;SDS011;21755;43.608;1.236;2022-10-16T05:58:34;24.85;;;11.57;;
34767;SDS011;21755;43.608;1.236;2022-10-16T06:01:02;21.17;;;10.90;;
34767;SDS011;21755;43.608;1.236;2022-10-16T06:03:30;19.73;;;10.23;;
34767;SDS011;21755;43.608;1.236;2022-10-16T06:05:56;23.75;;;10.18;;
34767;SDS011;21755;43.608;1.236;2022-10-16T06:08:23;22.58;;;9.85;;
34767;SDS011;21755;43.608;1.236;2022-10-16T06:10:59;18.35;;;10.68;;
34767;SDS011;21755;43.608;1.236;2022-10-16T06:13:27;20.58;;;10.80;;
34767;SDS011;21755;43.608;1.236;2022-10-16T06:15:53;19.23;;;10.63;;
34767;SDS011;21755;43.608;1.236;2022-10-16T06:18:23;23.80;;;10.57;;
34767;SDS011;21755;43.608;1.236;2022-10-16T06:20:50;16.42;;;10.48;;
34767;SDS011;21755;43.608;1.236;2022-10-16T06:23:16;17.80;;;10.30;;
34767;SDS011;21755;43.608;1.236;2022-10-16T06:25:42;24.00;;;10.82;;
34767;SDS011;21755;43.608;1.236;2022-10-16T06:28:08;21.20;;;11.32;;
34767;SDS011;21755;43.608;1.236;2022-10-16T06:30:34;17.67;;;10.40;;
34767;SDS011;21755;43.608;1.236;2022-10-16T06:33:00;21.05;;;10.25;;
34767;SDS011;21755;43.608;1.236;2022-10-16T06:35:26;17.83;;;10.73;;
34767;SDS011;21755;43.608;1.236;2022-10-16T06:37:54;19.52;;;9.70;;
34767;SDS011;21755;43.608;1.236;2022-10-16T06:40:20;16.95;;;10.75;;
34767;SDS011;21755;43.608;1.236;2022-10-16T06:42:46;23.45;;;10.70;;
34767;SDS011;21755;43.608;1.236;2022-10-16T06:45:12;23.60;;;11.27;;
34767;SDS011;21755;43.608;1.236;2022-10-16T06:47:38;25.13;;;10.95;;
34767;SDS011;21755;43.608;1.236;2022-10-16T06:50:04;20.77;;;10.88;;
34767;SDS011;21755;43.608;1.236;2022-10-16T06:52:32;16.05;;;10.38;;
34767;SDS011;21755;43.608;1.236;2022-10-16T06:54:59;21.35;;;9.32;;
34767;SDS011;21755;43.608;1.236;2022-10-16T06:57:26;23.98;;;10.25;;
34767;SDS011;21755;43.608;1.236;2022-10-16T06:59:52;28.17;;;10.85;;
34767;SDS011;21755;43.608;1.236;2022-10-16T07:02:18;16.52;;;9.90;;
34767;SDS011;21755;43.608;1.236;2022-10-16T07:04:44;20.80;;;10.65;;
34767;SDS011;21755;43.608;1.236;2022-10-16T07:07:10;25.42;;;10.95;;
34767;SDS011;21755;43.608;1.236;2022-10-16T07:09:36;21.60;;;10.80;;
34767;SDS011;21755;43.608;1.236;2022-10-16T07:12:02;21.10;;;10.57;;
34767;SDS011;21755;43.608;1.236;2022-10-16T07:14:28;21.23;;;10.65;;
34767;SDS011;21755;43.608;1.236;2022-10-16T07:16:55;20.70;;;11.80;;
34767;SDS011;21755;43.608;1.236;2022-10-16T07:19:21;25.30;;;11.35;;
34767;SDS011;21755;43.608;1.236;2022-10-16T07:21:47;19.08;;;11.05;;
34767;SDS011;21755;43.608;1.236;2022-10-16T07:24:14;18.30;;;10.15;;
34767;SDS011;21755;43.608;1.236;2022-10-16T07:26:42;21.13;;;11.48;;
34767;SDS011;21755;43.608;1.236;2022-10-16T07:29:13;17.65;;;10.30;;
34767;SDS011;21755;43.608;1.236;2022-10-16T07:31:41;17.65;;;10.30;;
34767;SDS011;21755;43.608;1.236;2022-10-16T07:34:08;19.65;;;10.40;;
34767;SDS011;21755;43.608;1.236;2022-10-16T07:36:38;17.95;;;10.25;;
34767;SDS011;21755;43.608;1.236;2022-10-16T07:39:07;19.08;;;9.90;;
34767;SDS011;21755;43.608;1.236;2022-10-16T07:41:34;18.27;;;10.32;;
34767;SDS011;21755;43.608;1.236;2022-10-16T07:44:03;18.08;;;9.45;;
34767;SDS011;21755;43.608;1.236;2022-10-16T07:46:31;24.80;;;10.48;;
34767;SDS011;21755;43.608;1.236;2022-10-16T07:48:59;18.48;;;9.60;;
34767;SDS011;21755;43.608;1.236;2022-10-16T07:51:25;17.92;;;9.18;;
34767;SDS011;21755;43.608;1.236;2022-10-16T07:53:52;19.20;;;8.82;;
34767;SDS011;21755;43.608;1.236;2022-10-16T07:56:19;17.85;;;9.27;;
34767;SDS011;21755;43.608;1.236;2022-10-16T07:58:46;15.93;;;9.82;;
34767;SDS011;21755;43.608;1.236;2022-10-16T08:01:15;14.95;;;8.75;;
34767;SDS011;21755;43.608;1.236;2022-10-16T08:03:42;15.02;;;8.55;;
34767;SDS011;21755;43.608;1.236;2022-10-16T08:06:13;22.00;;;9.15;;
34767;SDS011;21755;43.608;1.236;2022-10-16T08:08:39;14.98;;;8.35;;
34767;SDS011;21755;43.608;1.236;2022-10-16T08:11:05;21.23;;;9.68;;
34767;SDS011;21755;43.608;1.236;2022-10-16T08:13:31;18.55;;;8.57;;
34767;SDS011;21755;43.608;1.236;2022-10-16T08:15:58;14.68;;;8.63;;
34767;SDS011;21755;43.608;1.236;2022-10-16T08:18:24;18.98;;;8.68;;
34767;SDS011;21755;43.608;1.236;2022-10-16T08:20:59;14.07;;;8.32;;
34767;SDS011;21755;43.608;1.236;2022-10-16T08:23:25;12.85;;;7.38;;
34767;SDS011;21755;43.608;1.236;2022-10-16T08:25:53;9.30;;;7.00;;
34767;SDS011;21755;43.608;1.236;2022-10-16T08:28:20;12.65;;;7.30;;
34767;SDS011;21755;43.608;1.236;2022-10-16T08:30:46;10.80;;;6.47;;
34767;SDS011;21755;43.608;1.236;2022-10-16T08:33:12;11.52;;;6.90;;
34767;SDS011;21755;43.608;1.236;2022-10-16T08:35:39;13.18;;;6.72;;
34767;SDS011;21755;43.608;1.236;2022-10-16T08:38:05;15.55;;;6.45;;
34767;SDS011;21755;43.608;1.236;2022-10-16T08:40:33;9.65;;;5.78;;
34767;SDS011;21755;43.608;1.236;2022-10-16T08:45:49;9.23;;;5.60;;
34767;SDS011;21755;43.608;1.236;2022-10-16T08:51:03;10.18;;;6.05;;
34767;SDS011;21755;43.608;1.236;2022-10-16T08:53:30;8.73;;;6.18;;
34767;SDS011;21755;43.608;1.236;2022-10-16T08:56:03;14.45;;;7.00;;
34767;SDS011;21755;43.608;1.236;2022-10-16T08:58:29;9.82;;;6.28;;
34767;SDS011;21755;43.608;1.236;2022-10-16T09:00:57;14.20;;;6.32;;
34767;SDS011;21755;43.608;1.236;2022-10-16T09:06:38;10.43;;;6.40;;
34767;SDS011;21755;43.608;1.236;2022-10-16T09:12:08;14.60;;;6.78;;
34767;SDS011;21755;43.608;1.236;2022-10-16T09:17:21;10.43;;;6.68;;
34767;SDS011;21755;43.608;1.236;2022-10-16T09:20:14;12.95;;;7.35;;
34767;SDS011;21755;43.608;1.236;2022-10-16T09:23:08;15.38;;;7.03;;
34767;SDS011;21755;43.608;1.236;2022-10-16T09:25:35;9.70;;;6.82;;
34767;SDS011;21755;43.608;1.236;2022-10-16T09:28:05;10.27;;;6.82;;
34767;SDS011;21755;43.608;1.236;2022-10-16T09:30:31;12.82;;;7.32;;
34767;SDS011;21755;43.608;1.236;2022-10-16T09:32:57;10.88;;;7.03;;
34767;SDS011;21755;43.608;1.236;2022-10-16T09:35:40;11.32;;;6.82;;
34767;SDS011;21755;43.608;1.236;2022-10-16T09:38:09;15.23;;;7.07;;
34767;SDS011;21755;43.608;1.236;2022-10-16T09:40:51;10.73;;;7.40;;
34767;SDS011;21755;43.608;1.236;2022-10-16T09:43:22;14.45;;;6.47;;
34767;SDS011;21755;43.608;1.236;2022-10-16T09:46:00;11.65;;;7.28;;
34767;SDS011;21755;43.608;1.236;2022-10-16T09:48:31;17.45;;;7.25;;
34767;SDS011;21755;43.608;1.236;2022-10-16T09:51:05;14.48;;;7.18;;
34767;SDS011;21755;43.608;1.236;2022-10-16T09:53:39;13.88;;;6.95;;
34767;SDS011;21755;43.608;1.236;2022-10-16T09:56:09;13.52;;;6.82;;
34767;SDS011;21755;43.608;1.236;2022-10-16T09:58:49;17.50;;;6.85;;
34767;SDS011;21755;43.608;1.236;2022-10-16T10:01:17;14.10;;;7.13;;
34767;SDS011;21755;43.608;1.236;2022-10-16T10:03:45;15.88;;;7.18;;
34767;SDS011;21755;43.608;1.236;2022-10-16T10:08:57;11.60;;;6.97;;
34767;SDS011;21755;43.608;1.236;2022-10-16T10:14:31;11.13;;;6.50;;
34767;SDS011;21755;43.608;1.236;2022-10-16T10:19:48;16.23;;;6.80;;
34767;SDS011;21755;43.608;1.236;2022-10-16T10:22:24;12.25;;;6.65;;
34767;SDS011;21755;43.608;1.236;2022-10-16T10:33:31;17.02;;;5.95;;
34767;SDS011;21755;43.608;1.236;2022-10-16T10:38:49;10.57;;;5.78;;
34767;SDS011;21755;43.608;1.236;2022-10-16T10:44:26;13.15;;;5.60;;
34767;SDS011;21755;43.608;1.236;2022-10-16T10:49:47;13.27;;;5.32;;
34767;SDS011;21755;43.608;1.236;2022-10-16T11:00:21;13.43;;;6.32;;
34767;SDS011;21755;43.608;1.236;2022-10-16T11:03:04;10.52;;;5.30;;
34767;SDS011;21755;43.608;1.236;2022-10-16T11:05:44;12.27;;;5.65;;
34767;SDS011;21755;43.608;1.236;2022-10-16T11:08:33;10.88;;;5.22;;
34767;SDS011;21755;43.608;1.236;2022-10-16T11:16:55;12.75;;;5.50;;
34767;SDS011;21755;43.608;1.236;2022-10-16T11:22:12;11.40;;;5.93;;
34767;SDS011;21755;43.608;1.236;2022-10-16T11:33:35;10.68;;;5.50;;
34767;SDS011;21755;43.608;1.236;2022-10-16T11:41:35;11.32;;;4.90;;
34767;SDS011;21755;43.608;1.236;2022-10-16T11:44:32;10.65;;;5.03;;
34767;SDS011;21755;43.608;1.236;2022-10-16T11:49:49;12.90;;;4.38;;
34767;SDS011;21755;43.608;1.236;2022-10-16T11:52:50;10.32;;;4.55;;
34767;SDS011;21755;43.608;1.236;2022-10-16T11:55:20;13.57;;;4.70;;
34767;SDS011;21755;43.608;1.236;2022-10-16T11:57:52;10.98;;;4.78;;
34767;SDS011;21755;43.608;1.236;2022-10-16T12:00:24;9.45;;;4.90;;
34767;SDS011;21755;43.608;1.236;2022-10-16T12:02:58;9.75;;;4.82;;
34767;SDS011;21755;43.608;1.236;2022-10-16T12:06:06;11.90;;;5.00;;
34767;SDS011;21755;43.608;1.236;2022-10-16T12:08:41;11.57;;;5.18;;
34767;SDS011;21755;43.608;1.236;2022-10-16T12:11:31;12.43;;;5.00;;
34767;SDS011;21755;43.608;1.236;2022-10-16T12:14:04;10.93;;;4.43;;
34767;SDS011;21755;43.608;1.236;2022-10-16T12:16:33;8.15;;;5.05;;
34767;SDS011;21755;43.608;1.236;2022-10-16T12:19:12;11.82;;;4.68;;
34767;SDS011;21755;43.608;1.236;2022-10-16T12:21:43;12.30;;;4.95;;
34767;SDS011;21755;43.608;1.236;2022-10-16T12:24:27;10.90;;;5.25;;
34767;SDS011;21755;43.608;1.236;2022-10-16T12:27:03;9.85;;;4.28;;
34767;SDS011;21755;43.608;1.236;2022-10-16T12:29:47;13.13;;;5.03;;
34767;SDS011;21755;43.608;1.236;2022-10-16T12:34:56;8.35;;;4.28;;
34767;SDS011;21755;43.608;1.236;2022-10-16T12:37:25;14.90;;;4.80;;
34767;SDS011;21755;43.608;1.236;2022-10-16T12:39:54;15.05;;;4.82;;
34767;SDS011;21755;43.608;1.236;2022-10-16T12:44:55;8.05;;;3.85;;
34767;SDS011;21755;43.608;1.236;2022-10-16T12:50:35;9.45;;;3.90;;
34767;SDS011;21755;43.608;1.236;2022-10-16T12:53:03;11.57;;;3.75;;
34767;SDS011;21755;43.608;1.236;2022-10-16T13:07:02;10.73;;;3.30;;
34767;SDS011;21755;43.608;1.236;2022-10-16T13:10:06;7.22;;;4.35;;
34767;SDS011;21755;43.608;1.236;2022-10-16T13:13:01;18.42;;;3.85;;
34767;SDS011;21755;43.608;1.236;2022-10-16T13:15:58;9.30;;;3.70;;
34767;SDS011;21755;43.608;1.236;2022-10-16T13:29:44;9.98;;;3.15;;
34767;SDS011;21755;43.608;1.236;2022-10-16T13:32:17;13.98;;;3.25;;
34767;SDS011;21755;43.608;1.236;2022-10-16T13:34:46;11.43;;;3.30;;
34767;SDS011;21755;43.608;1.236;2022-10-16T13:37:19;5.97;;;2.58;;
34767;SDS011;21755;43.608;1.236;2022-10-16T13:39:47;10.75;;;3.58;;
34767;SDS011;21755;43.608;1.236;2022-10-16T13:42:22;7.38;;;3.13;;
34767;SDS011;21755;43.608;1.236;2022-10-16T13:44:51;11.70;;;2.55;;
34767;SDS011;21755;43.608;1.236;2022-10-16T13:47:19;8.00;;;2.85;;
34767;SDS011;21755;43.608;1.236;2022-10-16T13:49:58;9.40;;;2.72;;
34767;SDS011;21755;43.608;1.236;2022-10-16T13:52:26;7.63;;;3.10;;
34767;SDS011;21755;43.608;1.236;2022-10-16T13:54:52;8.25;;;2.80;;
34767;SDS011;21755;43.608;1.236;2022-10-16T13:57:18;15.00;;;2.60;;
34767;SDS011;21755;43.608;1.236;2022-10-16T13:59:48;5.75;;;2.80;;
34767;SDS011;21755;43.608;1.236;2022-10-16T14:02:19;5.43;;;2.85;;
34767;SDS011;21755;43.608;1.236;2022-10-16T14:04:50;9.95;;;2.80;;
34767;SDS011;21755;43.608;1.236;2022-10-16T14:07:25;7.93;;;3.08;;
34767;SDS011;21755;43.608;1.236;2022-10-16T14:09:53;11.40;;;2.72;;
34767;SDS011;21755;43.608;1.236;2022-10-16T14:12:20;7.32;;;2.95;;
34767;SDS011;21755;43.608;1.236;2022-10-16T14:14:49;4.88;;;2.17;;
34767;SDS011;21755;43.608;1.236;2022-10-16T14:17:28;7.57;;;2.50;;
34767;SDS011;21755;43.608;1.236;2022-10-16T14:19:57;9.60;;;2.58;;
34767;SDS011;21755;43.608;1.236;2022-10-16T14:28:00;3.65;;;2.60;;
34767;SDS011;21755;43.608;1.236;2022-10-16T14:30:48;6.73;;;2.80;;
34767;SDS011;21755;43.608;1.236;2022-10-16T14:38:28;12.18;;;3.33;;
34767;SDS011;21755;43.608;1.236;2022-10-16T14:40:54;6.97;;;2.50;;
34767;SDS011;21755;43.608;1.236;2022-10-16T14:46:01;4.95;;;2.60;;
34767;SDS011;21755;43.608;1.236;2022-10-16T14:48:31;14.48;;;3.15;;
34767;SDS011;21755;43.608;1.236;2022-10-16T14:50:58;6.25;;;2.67;;
34767;SDS011;21755;43.608;1.236;2022-10-16T14:53:24;10.48;;;2.97;;
34767;SDS011;21755;43.608;1.236;2022-10-16T14:55:50;9.07;;;2.97;;
34767;SDS011;21755;43.608;1.236;2022-10-16T14:58:20;7.03;;;2.78;;
34767;SDS011;21755;43.608;1.236;2022-10-16T15:00:48;12.35;;;2.75;;
34767;SDS011;21755;43.608;1.236;2022-10-16T15:03:14;13.65;;;3.00;;
34767;SDS011;21755;43.608;1.236;2022-10-16T15:05:41;6.47;;;3.00;;
34767;SDS011;21755;43.608;1.236;2022-10-16T15:08:07;7.63;;;2.72;;
34767;SDS011;21755;43.608;1.236;2022-10-16T15:10:35;7.25;;;2.63;;
34767;SDS011;21755;43.608;1.236;2022-10-16T15:15:35;5.97;;;2.75;;
34767;SDS011;21755;43.608;1.236;2022-10-16T15:18:05;8.02;;;2.30;;
34767;SDS011;21755;43.608;1.236;2022-10-16T15:20:35;9.32;;;2.50;;
34767;SDS011;21755;43.608;1.236;2022-10-16T15:23:04;14.02;;;2.72;;
34767;SDS011;21755;43.608;1.236;2022-10-16T15:25:47;6.78;;;2.40;;
34767;SDS011;21755;43.608;1.236;2022-10-16T15:28:16;6.38;;;2.38;;
34767;SDS011;21755;43.608;1.236;2022-10-16T15:30:43;5.80;;;2.80;;
34767;SDS011;21755;43.608;1.236;2022-10-16T15:33:14;7.57;;;2.65;;
34767;SDS011;21755;43.608;1.236;2022-10-16T15:35:42;9.30;;;3.10;;
34767;SDS011;21755;43.608;1.236;2022-10-16T15:38:11;6.65;;;2.75;;
34767;SDS011;21755;43.608;1.236;2022-10-16T15:40:38;11.25;;;2.53;;
34767;SDS011;21755;43.608;1.236;2022-10-16T15:43:05;5.60;;;2.17;;
34767;SDS011;21755;43.608;1.236;2022-10-16T15:45:31;11.68;;;3.10;;
34767;SDS011;21755;43.608;1.236;2022-10-16T15:47:57;14.55;;;3.05;;
34767;SDS011;21755;43.608;1.236;2022-10-16T15:50:24;8.25;;;3.08;;
34767;SDS011;21755;43.608;1.236;2022-10-16T15:52:50;7.35;;;2.85;;
34767;SDS011;21755;43.608;1.236;2022-10-16T15:55:24;11.23;;;3.00;;
34767;SDS011;21755;43.608;1.236;2022-10-16T15:57:50;6.28;;;2.58;;
34767;SDS011;21755;43.608;1.236;2022-10-16T16:00:18;7.80;;;3.47;;
34767;SDS011;21755;43.608;1.236;2022-10-16T16:02:50;19.00;;;3.13;;
34767;SDS011;21755;43.608;1.236;2022-10-16T16:05:19;15.25;;;3.10;;
34767;SDS011;21755;43.608;1.236;2022-10-16T16:07:47;11.48;;;3.22;;
34767;SDS011;21755;43.608;1.236;2022-10-16T16:10:13;14.02;;;3.17;;
34767;SDS011;21755;43.608;1.236;2022-10-16T16:12:40;8.95;;;2.83;;
34767;SDS011;21755;43.608;1.236;2022-10-16T16:15:06;10.50;;;2.95;;
34767;SDS011;21755;43.608;1.236;2022-10-16T16:17:34;11.18;;;2.97;;
34767;SDS011;21755;43.608;1.236;2022-10-16T16:20:01;13.38;;;3.58;;
34767;SDS011;21755;43.608;1.236;2022-10-16T16:22:29;6.90;;;2.90;;
34767;SDS011;21755;43.608;1.236;2022-10-16T16:24:55;4.63;;;2.88;;
34767;SDS011;21755;43.608;1.236;2022-10-16T16:27:21;14.63;;;3.10;;
34767;SDS011;21755;43.608;1.236;2022-10-16T16:29:49;9.35;;;3.22;;
34767;SDS011;21755;43.608;1.236;2022-10-16T16:32:15;6.32;;;2.55;;
34767;SDS011;21755;43.608;1.236;2022-10-16T16:34:41;9.20;;;3.00;;
34767;SDS011;21755;43.608;1.236;2022-10-16T16:37:07;7.03;;;2.78;;
34767;SDS011;21755;43.608;1.236;2022-10-16T16:39:33;9.27;;;3.00;;
34767;SDS011;21755;43.608;1.236;2022-10-16T16:41:59;9.07;;;3.45;;
34767;SDS011;21755;43.608;1.236;2022-10-16T16:44:27;11.57;;;3.20;;
34767;SDS011;21755;43.608;1.236;2022-10-16T16:46:53;10.77;;;3.20;;
34767;SDS011;21755;43.608;1.236;2022-10-16T16:49:19;8.05;;;2.67;;
34767;SDS011;21755;43.608;1.236;2022-10-16T16:51:45;9.63;;;3.40;;
34767;SDS011;21755;43.608;1.236;2022-10-16T16:54:11;6.82;;;3.60;;
34767;SDS011;21755;43.608;1.236;2022-10-16T16:56:39;7.20;;;3.42;;
34767;SDS011;21755;43.608;1.236;2022-10-16T16:59:10;9.38;;;3.00;;
34767;SDS011;21755;43.608;1.236;2022-10-16T17:01:40;11.02;;;2.95;;